Time;durP1;ratioP1;P1;durP2;ratioP2;P2;SDS_P1;SDS_P2;PMS_P1;PMS_P2;Temp;Humidity;BMP_temperature;BMP_pressure;BME280_temperature;BME280_humidity;BME280_pressure;Samples;Min_cycle;Max_cycle;Signal;HPM_P1;HPM_P2
2021/11/08 00:01:20;;;;;;;9.37;3.03;;;;;;;7.37;81.70;100874.19;5009151;28;20298;-74
2021/11/08 00:03:50;;;;;;;7.83;2.53;;;;;;;7.38;81.61;100867.97;5008349;28;20214;-73
2021/11/08 00:06:18;;;;;;;13.63;4.27;;;;;;;7.38;81.64;100868.81;5000280;28;20231;-73
2021/11/08 00:08:45;;;;;;;13.17;3.27;;;;;;;7.36;82.07;100868.03;5000996;28;20661;-73
2021/11/08 00:11:12;;;;;;;14.97;3.10;;;;;;;7.37;82.33;100871.53;4995273;28;20203;-73
2021/11/08 00:13:39;;;;;;;13.43;3.37;;;;;;;7.34;82.27;100869.06;4998608;28;20207;-73
2021/11/08 00:16:17;;;;;;;12.70;3.00;;;;;;;7.34;81.89;100877.88;4994715;28;20211;-73
2021/11/08 00:18:49;;;;;;;9.10;2.60;;;;;;;7.34;81.77;100883.16;4998834;28;20237;-72
2021/11/08 00:21:20;;;;;;;11.30;3.67;;;;;;;7.31;82.51;100881.50;4999745;28;20293;-74
2021/11/08 00:23:46;;;;;;;14.63;3.10;;;;;;;7.30;81.98;100884.22;5001708;28;20301;-73
2021/11/08 00:26:13;;;;;;;9.70;4.43;;;;;;;7.31;81.82;100881.50;5004978;28;20219;-73
2021/11/08 00:28:40;;;;;;;9.50;3.10;;;;;;;7.32;81.61;100885.88;5004353;28;20211;-73
2021/11/08 00:31:06;;;;;;;9.67;2.50;;;;;;;7.32;82.06;100883.22;4995955;28;20214;-73
2021/11/08 00:33:33;;;;;;;10.37;3.43;;;;;;;7.34;82.71;100890.25;5001939;28;20789;-74
2021/11/08 00:36:01;;;;;;;9.50;2.93;;;;;;;7.33;81.67;100881.44;4999924;28;20676;-73
2021/11/08 00:38:30;;;;;;;13.27;2.40;;;;;;;7.33;81.78;100881.44;4993211;28;20207;-73
2021/11/08 00:40:58;;;;;;;13.43;2.80;;;;;;;7.35;81.97;100891.94;5003378;28;20685;-73
2021/11/08 00:43:25;;;;;;;7.70;2.07;;;;;;;7.34;82.54;100890.25;5003071;28;20210;-72
2021/11/08 00:45:52;;;;;;;11.50;2.73;;;;;;;7.34;82.18;100893.75;4997845;28;20217;-73
2021/11/08 00:48:21;;;;;;;10.00;2.07;;;;;;;7.31;82.41;100900.06;4997705;28;20208;-73
2021/11/08 00:50:49;;;;;;;9.80;2.60;;;;;;;7.32;82.18;100896.47;5002813;28;20218;-73
2021/11/08 00:53:16;;;;;;;9.27;2.33;;;;;;;7.31;82.02;100900.06;4998135;28;20520;-74
2021/11/08 00:55:46;;;;;;;8.40;2.33;;;;;;;7.29;81.87;100896.63;5003715;28;20585;-73
2021/11/08 00:58:17;;;;;;;7.63;1.97;;;;;;;7.30;82.11;100900.97;4995903;28;20230;-73
2021/11/08 01:00:44;;;;;;;11.50;2.27;;;;;;;7.28;81.77;100908.13;4990494;28;20231;-73
2021/11/08 01:03:13;;;;;;;9.93;2.27;;;;;;;7.25;82.31;100907.41;4997007;28;20306;-73
2021/11/08 01:05:40;;;;;;;9.93;1.80;;;;;;;7.24;82.44;100913.63;5018057;28;20762;-74
2021/11/08 01:08:07;;;;;;;11.83;2.37;;;;;;;7.24;82.39;100906.56;4997483;28;20947;-73
2021/11/08 01:10:34;;;;;;;12.77;2.33;;;;;;;7.23;81.90;100909.28;5008394;28;20210;-73
2021/11/08 01:13:01;;;;;;;6.10;2.00;;;;;;;7.22;82.50;100915.50;4992768;28;20209;-73
2021/11/08 01:15:28;;;;;;;10.00;2.10;;;;;;;7.21;81.58;100913.78;4996059;28;20580;-74
2021/11/08 01:17:55;;;;;;;9.93;2.90;;;;;;;7.19;81.73;100915.63;4988940;28;20618;-73
2021/11/08 01:20:26;;;;;;;11.73;2.40;;;;;;;7.18;82.36;100917.41;4993058;28;20227;-73
2021/11/08 01:22:53;;;;;;;10.97;2.37;;;;;;;7.18;81.72;100930.66;4996569;28;20214;-73
2021/11/08 01:25:19;;;;;;;8.47;3.37;;;;;;;7.17;81.98;100918.34;5001514;28;20213;-73
2021/11/08 01:27:50;;;;;;;8.80;2.33;;;;;;;7.14;82.57;100929.09;5010648;28;20318;-73
2021/11/08 01:30:20;;;;;;;7.30;2.23;;;;;;;7.12;82.69;100924.78;5011338;28;20207;-73
2021/11/08 01:32:55;;;;;;;12.23;2.83;;;;;;;7.11;82.30;100939.81;5013498;28;20206;-73
2021/11/08 01:35:29;;;;;;;7.73;2.10;;;;;;;7.11;83.14;100928.38;4999894;28;20265;-73
2021/11/08 01:38:02;;;;;;;9.30;3.13;;;;;;;7.11;82.60;100933.66;4993443;28;20258;-73
2021/11/08 01:40:30;;;;;;;11.17;2.37;;;;;;;7.10;82.75;100922.22;5000825;28;20301;-73
2021/11/08 01:42:56;;;;;;;9.60;2.53;;;;;;;7.09;82.63;100931.09;4994006;28;20212;-73
2021/11/08 01:45:24;;;;;;;13.33;4.17;;;;;;;7.08;82.47;100924.06;5000804;28;20238;-73
2021/11/08 01:47:51;;;;;;;9.07;3.07;;;;;;;7.08;82.20;100933.81;5001456;28;20232;-73
2021/11/08 01:50:18;;;;;;;12.07;2.47;;;;;;;7.06;82.49;100928.56;5002853;28;20205;-72
2021/11/08 01:52:45;;;;;;;10.10;2.60;;;;;;;7.06;82.16;100931.22;5005447;28;20211;-73
2021/11/08 01:55:11;;;;;;;12.23;3.20;;;;;;;7.06;83.20;100940.94;5006855;28;20207;-73
2021/11/08 01:57:38;;;;;;;12.17;3.30;;;;;;;7.02;82.47;100936.72;4995364;28;20782;-73
2021/11/08 02:00:07;;;;;;;10.33;3.17;;;;;;;7.01;83.46;100938.50;4996539;28;20258;-71
2021/11/08 02:02:35;;;;;;;12.97;3.53;;;;;;;7.00;82.93;100946.50;4994778;28;20204;-73
2021/11/08 02:05:02;;;;;;;12.77;2.87;;;;;;;6.98;83.24;100949.25;4998671;28;20211;-74
2021/11/08 02:07:29;;;;;;;12.70;2.73;;;;;;;6.96;83.29;100946.66;5008538;28;20685;-72
2021/11/08 02:09:56;;;;;;;8.90;2.87;;;;;;;6.96;82.89;100951.09;4993301;28;20195;-74
2021/11/08 02:12:22;;;;;;;12.37;3.00;;;;;;;6.95;83.26;100952.88;5000418;28;20215;-73
2021/11/08 02:14:49;;;;;;;15.47;3.23;;;;;;;6.94;83.14;100945.00;5004569;28;20220;-72
2021/11/08 02:17:16;;;;;;;7.73;2.60;;;;;;;6.93;82.98;100959.16;4998077;28;20227;-74
2021/11/08 02:19:44;;;;;;;10.47;2.83;;;;;;;6.90;83.11;100957.50;4996671;28;20231;-73
2021/11/08 02:22:12;;;;;;;8.40;3.50;;;;;;;6.90;83.82;100962.81;4992958;28;20211;-73
2021/11/08 02:24:41;;;;;;;16.70;3.53;;;;;;;6.91;83.51;100961.03;5003105;28;20202;-73
2021/11/08 02:27:09;;;;;;;11.10;2.40;;;;;;;6.91;83.80;100964.53;5003896;28;20228;-73
2021/11/08 02:29:35;;;;;;;11.13;3.03;;;;;;;6.93;83.75;100964.47;4996658;28;20203;-73
2021/11/08 02:32:04;;;;;;;14.80;2.67;;;;;;;6.92;83.58;100968.91;4997428;28;20600;-73
2021/11/08 02:34:30;;;;;;;11.40;2.77;;;;;;;6.92;83.73;100971.53;5011947;28;20300;-73
2021/11/08 02:36:57;;;;;;;11.67;2.60;;;;;;;6.92;83.62;100976.84;5011525;28;20230;-73
2021/11/08 02:39:28;;;;;;;12.47;2.97;;;;;;;6.92;84.31;100976.84;5000869;28;20243;-73
2021/11/08 02:41:55;;;;;;;8.50;3.37;;;;;;;6.93;83.61;100975.06;5006437;28;20280;-73
2021/11/08 02:44:21;;;;;;;15.27;3.40;;;;;;;6.93;84.07;100981.22;4993338;28;20227;-73
2021/11/08 02:46:52;;;;;;;6.80;2.67;;;;;;;6.96;83.92;100986.38;4992673;28;20223;-72
2021/11/08 02:49:24;;;;;;;13.60;3.37;;;;;;;6.97;83.79;100989.88;5010434;28;20226;-74
2021/11/08 02:51:59;;;;;;;13.07;3.30;;;;;;;6.99;83.94;100992.47;5005485;28;20245;-73
2021/11/08 02:54:32;;;;;;;8.33;2.87;;;;;;;7.00;83.70;100984.44;5010699;28;20209;-72
2021/11/08 02:56:58;;;;;;;11.80;3.53;;;;;;;7.02;83.89;100989.66;5008648;28;20233;-73
2021/11/08 02:59:28;;;;;;;13.93;3.03;;;;;;;7.02;83.97;100992.31;5010633;28;20231;-73
2021/11/08 03:01:55;;;;;;;9.53;2.50;;;;;;;7.04;84.46;100990.47;5010134;28;20195;-73
2021/11/08 03:04:26;;;;;;;11.10;2.83;;;;;;;7.03;83.95;101002.84;5006247;28;20290;-72
2021/11/08 03:06:53;;;;;;;14.77;3.23;;;;;;;7.04;84.02;101006.34;5001801;28;20230;-73
2021/11/08 03:09:24;;;;;;;12.23;3.60;;;;;;;7.06;83.98;101005.38;5003425;28;20214;-73
2021/11/08 03:11:53;;;;;;;11.10;2.57;;;;;;;7.06;84.22;101010.66;5007594;28;20207;-73
2021/11/08 03:14:23;;;;;;;8.63;2.43;;;;;;;7.07;84.18;101014.19;5001262;28;20237;-73
2021/11/08 03:16:54;;;;;;;8.10;2.30;;;;;;;7.07;84.08;101011.53;5004595;28;20247;-73
2021/11/08 03:19:24;;;;;;;11.17;2.27;;;;;;;7.07;84.15;101017.69;5001743;28;20243;-72
2021/11/08 03:21:54;;;;;;;14.93;2.77;;;;;;;7.08;83.77;101011.47;5041504;22;20241;-87
2021/11/08 03:24:32;;;;;;;12.70;2.20;;;;;;;7.07;84.21;101014.19;5049752;28;20206;-88
2021/11/08 03:27:07;;;;;;;11.03;2.67;;;;;;;7.07;83.98;101014.19;5043473;28;20232;-88
2021/11/08 03:30:03;;;;;;;10.10;2.60;;;;;;;7.07;83.84;101003.59;5034110;28;20235;-88
2021/11/08 03:33:01;;;;;;;10.60;2.10;;;;;;;7.08;83.96;101013.25;5039681;28;20306;-88
2021/11/08 03:35:53;;;;;;;11.27;2.27;;;;;;;7.04;83.91;101015.16;5022934;28;20596;-88
2021/11/08 03:38:22;;;;;;;8.07;2.33;;;;;;;7.04;83.75;101009.00;5031311;28;20207;-86
2021/11/08 03:40:51;;;;;;;15.60;2.63;;;;;;;7.02;84.03;101022.31;5029240;28;20229;-86
2021/11/08 03:43:23;;;;;;;11.07;3.17;;;;;;;7.00;83.87;101020.66;5042514;28;20227;-90
2021/11/08 03:46:03;;;;;;;13.20;2.20;;;;;;;6.99;83.82;101032.19;5030741;28;20230;-88
2021/11/08 03:48:32;;;;;;;11.50;2.63;;;;;;;6.97;83.86;101025.19;5035484;28;20206;-86
2021/11/08 03:51:00;;;;;;;12.97;2.50;;;;;;;6.96;83.78;101026.09;5034234;28;20246;-88
2021/11/08 03:53:27;;;;;;;8.03;2.50;;;;;;;6.96;84.00;101039.34;5040319;28;20209;-88
2021/11/08 03:55:54;;;;;;;9.70;2.90;;;;;;;6.93;83.61;101042.13;5040701;28;20207;-88
2021/11/08 03:58:21;;;;;;;10.87;3.13;;;;;;;6.94;84.08;101043.84;5035789;28;20202;-87
2021/11/08 04:00:49;;;;;;;12.23;2.50;;;;;;;6.94;83.81;101054.44;5036028;28;20345;-86
2021/11/08 04:03:16;;;;;;;13.13;2.67;;;;;;;6.92;83.95;101056.28;5037894;28;20620;-87
2021/11/08 04:05:43;;;;;;;9.23;3.07;;;;;;;6.90;83.88;101050.19;5037176;28;20297;-89
2021/11/08 04:08:17;;;;;;;12.00;3.43;;;;;;;6.86;84.24;101047.72;5024237;28;20203;-86
2021/11/08 04:10:44;;;;;;;10.77;2.83;;;;;;;6.85;83.92;101056.59;5036350;28;20230;-87
2021/11/08 04:13:13;;;;;;;7.67;2.73;;;;;;;6.83;83.36;101058.44;5033698;28;20207;-86
2021/11/08 04:15:44;;;;;;;11.33;3.33;;;;;;;6.80;83.42;101062.09;5037133;28;20256;-87
2021/11/08 04:18:15;;;;;;;11.13;3.23;;;;;;;6.80;83.70;101061.22;5030991;28;20213;-88
2021/11/08 04:20:45;;;;;;;10.87;2.80;;;;;;;6.80;84.03;101071.81;5032884;28;20613;-87
2021/11/08 04:23:15;;;;;;;12.37;2.63;;;;;;;6.78;83.84;101073.66;5033002;28;20296;-86
2021/11/08 04:25:42;;;;;;;7.67;2.43;;;;;;;6.77;83.64;101077.22;5043000;28;20225;-86
2021/11/08 04:28:09;;;;;;;10.50;3.03;;;;;;;6.73;83.75;101075.63;5031038;28;20202;-85
2021/11/08 04:30:38;;;;;;;13.40;3.17;;;;;;;6.72;83.90;101074.75;5025898;28;20235;-86
2021/11/08 04:33:16;;;;;;;8.60;2.90;;;;;;;6.70;83.92;101079.25;5024587;28;20293;-85
2021/11/08 04:35:50;;;;;;;11.50;2.80;;;;;;;6.69;83.81;101081.97;5045101;28;20210;-87
2021/11/08 04:38:31;;;;;;;8.60;2.47;;;;;;;6.69;84.17;101081.97;5026591;28;20301;-87
2021/11/08 04:41:16;;;;;;;12.27;3.63;;;;;;;6.68;84.06;101081.09;5037045;28;20222;-87
2021/11/08 04:49:20;;;;;;;8.77;2.77;;;;;;;6.63;84.47;101082.22;4991641;28;20210;-87
2021/11/08 04:51:54;;;;;;;10.33;2.80;;;;;;;6.63;84.04;101086.56;5024440;28;20203;-88
2021/11/08 04:54:31;;;;;;;12.83;2.63;;;;;;;6.64;84.52;101082.13;5040961;28;20246;-87
2021/11/08 04:57:19;;;;;;;8.63;2.73;;;;;;;6.63;84.14;101083.91;5037411;28;20197;-87
2021/11/08 05:21:50;;;;;;;10.50;3.03;;;;;;;6.73;85.12;101096.81;5050590;28;20293;-87
2021/11/08 05:24:35;;;;;;;6.67;2.43;;;;;;;6.73;85.30;101089.72;5033547;28;20199;-86
2021/11/08 05:29:58;;;;;;;11.17;2.87;;;;;;;6.75;84.74;101097.59;5038230;28;20257;-88
2021/11/08 05:32:27;;;;;;;8.33;3.00;;;;;;;6.74;85.57;101102.03;5041899;28;20211;-87
2021/11/08 05:34:54;;;;;;;8.40;2.60;;;;;;;6.76;85.34;101097.53;5050802;28;20222;-89
2021/11/08 05:37:23;;;;;;;11.73;3.27;;;;;;;6.75;85.31;101090.53;5034323;28;20202;-89
2021/11/08 05:39:52;;;;;;;8.97;2.80;;;;;;;6.78;85.13;101101.00;5038351;28;20715;-87
2021/11/08 05:42:22;;;;;;;9.30;3.43;;;;;;;6.76;85.39;101100.19;5039689;28;20221;-88
2021/11/08 05:44:52;;;;;;;15.03;2.77;;;;;;;6.78;85.15;101114.22;5039560;28;20228;-88
2021/11/08 05:47:19;;;;;;;11.63;3.30;;;;;;;6.77;85.46;101112.50;5039385;28;20205;-88
2021/11/08 05:49:46;;;;;;;12.17;3.07;;;;;;;6.76;85.07;101121.38;5043376;28;20221;-88
2021/11/08 05:52:15;;;;;;;8.50;2.70;;;;;;;6.77;84.92;101122.22;5042694;28;20217;-88
2021/11/08 05:54:42;;;;;;;9.17;3.57;;;;;;;6.77;85.25;101123.09;5036834;28;20598;-88
2021/11/08 06:00:35;;;;;;;6.77;2.93;;;;;;;6.75;84.71;101132.88;5038927;28;20309;-87
2021/11/08 06:49:50;;;;;;;8.93;3.10;;;;;;;6.58;84.40;101177.69;5030053;28;20591;-86
2021/11/08 06:52:18;;;;;;;6.43;2.37;;;;;;;6.56;84.87;101179.50;5021610;28;20203;-86
2021/11/08 06:54:47;;;;;;;7.97;2.80;;;;;;;6.56;84.74;101180.38;5025935;28;20206;-86
2021/11/08 06:57:16;;;;;;;6.97;2.30;;;;;;;6.56;84.74;101180.38;5032593;28;20211;-89
2021/11/08 06:59:45;;;;;;;7.33;2.40;;;;;;;6.57;85.06;101190.03;5026522;28;20222;-86
2021/11/08 07:02:13;;;;;;;7.77;2.20;;;;;;;6.56;84.71;101190.09;5037537;28;20253;-86
2021/11/08 07:04:39;;;;;;;8.60;2.77;;;;;;;6.57;85.07;101195.34;5026926;28;20288;-85
2021/11/08 07:07:09;;;;;;;14.03;2.87;;;;;;;6.58;84.59;101199.72;5035862;28;20206;-86
2021/11/08 07:09:37;;;;;;;8.37;2.40;;;;;;;6.60;85.12;101204.94;5036199;28;20580;-86
2021/11/08 07:12:05;;;;;;;16.50;2.77;;;;;;;6.60;84.97;101207.59;5034630;28;20194;-86
2021/11/08 07:14:32;;;;;;;9.73;1.97;;;;;;;6.59;84.53;101206.72;5031068;28;20213;-86
2021/11/08 07:16:59;;;;;;;9.03;2.60;;;;;;;6.61;84.82;101206.69;5022497;28;20210;-87
2021/11/08 07:19:25;;;;;;;7.07;2.13;;;;;;;6.65;84.88;101217.97;5030150;28;20314;-87
2021/11/08 07:21:52;;;;;;;10.13;2.50;;;;;;;6.63;84.73;101218.03;5027962;28;20308;-86
2021/11/08 07:24:20;;;;;;;6.73;2.30;;;;;;;6.61;84.62;101219.91;5037596;28;20220;-86
2021/11/08 07:26:49;;;;;;;11.03;2.80;;;;;;;6.63;85.02;101233.91;5033262;28;20668;-87
2021/11/08 07:29:19;;;;;;;11.60;2.90;;;;;;;6.62;84.30;101229.56;5032182;28;20218;-87
2021/11/08 07:31:45;;;;;;;7.97;2.67;;;;;;;6.62;84.71;101234.88;5034114;28;20201;-87
2021/11/08 07:34:13;;;;;;;10.23;3.00;;;;;;;6.63;84.47;101241.03;5027886;28;20293;-86
2021/11/08 07:36:52;;;;;;;11.63;3.80;;;;;;;6.63;84.57;101243.69;5016491;28;20644;-87
2021/11/08 07:39:23;;;;;;;12.63;2.93;;;;;;;6.62;84.81;101242.81;5030304;28;20222;-86
2021/11/08 07:42:02;;;;;;;8.73;2.60;;;;;;;6.63;84.64;101247.16;5019800;28;20506;-87
2021/11/08 07:44:34;;;;;;;11.60;3.63;;;;;;;6.63;84.84;101253.31;5026111;28;20267;-85
2021/11/08 07:47:03;;;;;;;10.73;2.60;;;;;;;6.68;84.61;101263.72;5025140;28;20648;-85
2021/11/08 07:49:35;;;;;;;11.20;3.67;;;;;;;6.70;84.94;101258.38;5032777;28;20232;-85
2021/11/08 07:52:06;;;;;;;12.03;3.40;;;;;;;6.72;84.61;101265.34;5030742;28;20548;-86
2021/11/08 07:54:34;;;;;;;10.93;3.50;;;;;;;6.74;84.60;101260.88;5026194;28;20269;-85
2021/11/08 07:57:02;;;;;;;16.23;3.43;;;;;;;6.79;84.89;101258.91;5036614;28;20202;-86
2021/11/08 07:59:29;;;;;;;11.13;3.93;;;;;;;6.84;84.85;101262.22;5032982;28;20254;-84
2021/11/08 08:01:56;;;;;;;11.50;3.27;;;;;;;6.88;84.88;101269.13;5032868;28;20259;-84
2021/11/08 08:04:23;;;;;;;18.17;3.93;;;;;;;6.93;84.80;101272.47;5033118;28;20566;-86
2021/11/08 08:06:55;;;;;;;14.43;3.60;;;;;;;6.99;84.60;101278.47;5027791;28;20213;-87
2021/11/08 08:09:24;;;;;;;9.47;3.30;;;;;;;7.00;84.40;101285.47;5032674;28;20300;-86
2021/11/08 08:11:54;;;;;;;12.93;4.23;;;;;;;7.03;84.93;101280.91;5037534;28;20707;-87
2021/11/08 08:14:21;;;;;;;16.90;4.07;;;;;;;7.08;84.96;101283.41;5032652;28;20205;-87
2021/11/08 08:16:48;;;;;;;12.23;3.30;;;;;;;7.12;84.83;101285.88;5031465;28;20206;-86
2021/11/08 08:19:15;;;;;;;11.10;3.07;;;;;;;7.17;84.46;101278.59;5032956;28;20290;-86
2021/11/08 08:21:43;;;;;;;8.27;3.60;;;;;;;7.21;84.59;101282.84;5036716;28;20240;-87
2021/11/08 08:24:10;;;;;;;8.63;3.20;;;;;;;7.26;84.38;101283.53;5031323;28;20229;-86
2021/11/08 08:26:39;;;;;;;12.77;3.97;;;;;;;7.29;84.22;101285.22;5033586;28;20206;-86
2021/11/08 08:29:10;;;;;;;13.10;3.67;;;;;;;7.31;84.14;101288.66;5031316;28;20202;-84
2021/11/08 08:31:43;;;;;;;11.47;3.00;;;;;;;7.36;84.05;101299.06;5034050;28;20294;-86
2021/11/08 08:34:15;;;;;;;8.27;3.33;;;;;;;7.42;83.60;101304.13;5030663;28;20189;-86
2021/11/08 08:36:42;;;;;;;9.20;4.30;;;;;;;7.46;83.60;101292.50;5032807;28;20198;-86
2021/11/08 08:39:10;;;;;;;10.10;3.60;;;;;;;7.50;84.05;101292.31;5023065;28;20245;-85
2021/11/08 08:41:38;;;;;;;11.10;4.63;;;;;;;7.53;83.24;101297.47;5035519;28;20229;-85
2021/11/08 08:44:07;;;;;;;10.70;3.80;;;;;;;7.57;84.07;101300.84;5034103;28;20202;-84
2021/11/08 08:46:34;;;;;;;14.73;4.70;;;;;;;7.62;83.42;101305.06;5028303;28;20211;-83
2021/11/08 08:49:01;;;;;;;14.60;4.37;;;;;;;7.65;83.16;101297.00;5031187;28;20206;-85
2021/11/08 08:51:28;;;;;;;13.47;4.30;;;;;;;7.68;83.16;101300.44;5030988;28;20213;-87
2021/11/08 08:53:54;;;;;;;13.17;4.83;;;;;;;7.68;83.06;101298.66;5030737;28;20207;-86
2021/11/08 08:56:23;;;;;;;12.47;4.20;;;;;;;7.64;82.63;101297.91;5037067;28;20206;-86
2021/11/08 08:58:52;;;;;;;17.30;4.37;;;;;;;7.69;82.83;101303.03;5029694;28;20208;-87
2021/11/08 09:01:21;;;;;;;12.70;4.90;;;;;;;7.73;83.22;101303.75;5033401;28;20244;-86
2021/11/08 09:03:48;;;;;;;9.80;3.70;;;;;;;7.81;83.29;101315.78;5030976;28;20286;-86
2021/11/08 09:06:15;;;;;;;12.00;4.00;;;;;;;7.91;82.75;101318.91;5034844;28;20216;-86
2021/11/08 09:08:41;;;;;;;11.27;3.97;;;;;;;7.93;82.78;101322.34;5031245;28;20198;-86
2021/11/08 09:11:08;;;;;;;19.13;4.30;;;;;;;7.95;83.05;101324.00;5028647;28;20222;-87
2021/11/08 09:13:38;;;;;;;10.97;4.27;;;;;;;7.99;82.55;101322.97;5025687;28;20212;-86
2021/11/08 09:16:11;;;;;;;10.47;4.17;;;;;;;8.00;82.15;101321.19;5027418;28;20561;-86
2021/11/08 09:18:40;;;;;;;11.50;4.30;;;;;;;8.06;82.08;101328.03;5027726;28;20206;-86
2021/11/08 09:21:07;;;;;;;8.20;4.43;;;;;;;8.11;81.69;101326.03;5028564;28;20230;-86
2021/11/08 09:23:33;;;;;;;12.67;4.50;;;;;;;8.13;82.02;101324.16;5028847;28;20703;-86
2021/11/08 09:26:00;;;;;;;7.30;4.20;;;;;;;8.20;81.64;101331.81;5048714;22;20301;-75
2021/11/08 09:28:27;;;;;;;12.60;5.13;;;;;;;8.23;81.52;101331.69;5001014;28;20234;-75
2021/11/08 09:30:54;;;;;;;9.87;4.53;;;;;;;8.23;81.77;101333.47;5004691;28;20218;-74
2021/11/08 09:33:20;;;;;;;12.70;4.83;;;;;;;8.23;81.30;101338.78;4997916;28;20203;-75
2021/11/08 09:35:49;;;;;;;10.30;4.83;;;;;;;8.26;81.17;101334.19;4998763;28;20214;-75
2021/11/08 09:40:49;;;;;;;10.07;4.27;;;;;;;8.30;80.68;101332.25;4980677;28;20262;-73
2021/11/08 09:43:19;;;;;;;14.03;5.20;;;;;;;8.32;80.69;101343.72;4994340;28;20228;-71
2021/11/08 09:45:46;;;;;;;9.83;4.30;;;;;;;8.34;80.88;101341.88;4986444;28;20203;-73
2021/11/08 09:48:13;;;;;;;15.93;4.57;;;;;;;8.39;80.17;101344.31;4985032;28;20200;-73
2021/11/08 09:50:42;;;;;;;12.80;4.77;;;;;;;8.42;80.17;101337.06;4971834;28;20239;-73
2021/11/08 09:53:12;;;;;;;12.50;4.80;;;;;;;8.43;80.08;101327.31;4971641;28;20207;-73
2021/11/08 09:55:40;;;;;;;16.33;4.87;;;;;;;8.45;80.53;101326.31;4969747;28;20584;-73
2021/11/08 09:58:07;;;;;;;11.67;5.00;;;;;;;8.48;80.19;101330.63;4967079;28;20299;-73
2021/11/08 10:00:47;;;;;;;10.27;4.70;;;;;;;8.53;80.46;101336.63;4974394;28;20224;-73
2021/11/08 10:03:16;;;;;;;8.93;3.53;;;;;;;8.57;80.36;101331.13;4976368;28;20231;-71
2021/11/08 10:05:45;;;;;;;12.17;5.13;;;;;;;8.60;79.77;101349.53;4971652;28;20282;-71
2021/11/08 10:08:15;;;;;;;11.87;4.67;;;;;;;8.62;79.52;101347.69;4971335;28;20201;-73
2021/11/08 10:10:42;;;;;;;9.43;4.50;;;;;;;8.66;79.86;101346.63;4974403;28;20658;-73
2021/11/08 10:13:12;;;;;;;14.37;4.63;;;;;;;8.71;80.27;101349.09;4974029;28;20212;-73
2021/11/08 10:15:41;;;;;;;12.30;4.50;;;;;;;8.74;79.70;101351.59;4972561;28;20212;-73
2021/11/08 10:18:08;;;;;;;9.90;4.47;;;;;;;8.78;79.48;101341.72;4974394;28;20211;-73
2021/11/08 10:20:36;;;;;;;8.67;3.80;;;;;;;8.83;79.63;101348.53;4966890;28;20235;-73
2021/11/08 10:23:04;;;;;;;13.23;5.13;;;;;;;8.88;79.37;101343.88;4977270;28;20232;-72
2021/11/08 10:25:35;;;;;;;13.07;4.90;;;;;;;8.90;78.74;101343.81;4977923;28;20669;-72
2021/11/08 10:28:08;;;;;;;10.37;4.50;;;;;;;8.90;78.65;101344.66;4970104;28;20679;-72
2021/11/08 10:30:36;;;;;;;11.13;4.97;;;;;;;8.90;78.49;101347.31;4971393;28;20227;-72
2021/11/08 10:33:09;;;;;;;11.93;5.20;;;;;;;8.91;78.29;101346.41;4979802;28;20208;-70
2021/11/08 10:35:37;;;;;;;10.17;4.80;;;;;;;8.92;78.50;101348.13;4978864;28;20584;-73
2021/11/08 10:38:10;;;;;;;10.40;5.07;;;;;;;8.95;77.90;101352.44;4974299;28;20204;-71
2021/11/08 10:40:47;;;;;;;10.60;4.37;;;;;;;8.93;77.49;101349.84;4972717;28;20331;-73
2021/11/08 10:43:24;;;;;;;13.97;5.50;;;;;;;8.94;77.34;101353.38;4974266;28;20228;-73
2021/11/08 10:45:53;;;;;;;13.63;5.73;;;;;;;8.95;76.52;101350.66;4979794;28;20203;-72
2021/11/08 10:48:23;;;;;;;11.50;4.97;;;;;;;8.98;76.89;101353.13;4977117;28;20207;-72
2021/11/08 10:50:52;;;;;;;11.27;5.00;;;;;;;9.00;77.23;101347.75;4977220;28;20203;-72
2021/11/08 10:53:19;;;;;;;12.53;5.70;;;;;;;9.04;77.12;101357.31;4979580;28;20210;-72
2021/11/08 10:55:51;;;;;;;11.10;5.03;;;;;;;9.10;76.39;101348.22;4980629;28;20204;-73
2021/11/08 10:58:20;;;;;;;13.73;4.93;;;;;;;9.15;77.20;101351.50;4974973;28;20203;-71
2021/11/08 11:00:53;;;;;;;11.50;4.57;;;;;;;9.19;76.42;101348.63;4968851;28;20204;-73
2021/11/08 11:03:21;;;;;;;9.30;4.37;;;;;;;9.22;76.89;101343.19;4980184;28;20278;-73
2021/11/08 11:06:00;;;;;;;14.90;4.33;;;;;;;9.27;76.41;101342.97;4977191;28;20204;-73
2021/11/08 11:08:26;;;;;;;12.50;4.10;;;;;;;9.31;76.24;101352.53;4980750;28;20242;-73
2021/11/08 11:10:57;;;;;;;9.23;2.93;;;;;;;9.35;76.72;101349.63;4983068;28;20216;-73
2021/11/08 11:13:25;;;;;;;9.37;3.53;;;;;;;9.39;76.20;101342.38;4981051;28;20201;-72
2021/11/08 11:16:00;;;;;;;10.17;3.57;;;;;;;9.41;76.02;101353.81;4979899;28;20234;-71
2021/11/08 11:18:27;;;;;;;12.70;4.20;;;;;;;9.48;75.87;101352.59;4978436;28;20240;-73
2021/11/08 11:20:54;;;;;;;12.20;3.73;;;;;;;9.53;75.87;101345.25;4981186;28;20216;-73
2021/11/08 11:23:26;;;;;;;12.50;3.60;;;;;;;9.58;75.32;101351.22;4982226;28;20224;-73
2021/11/08 11:26:03;;;;;;;12.53;3.83;;;;;;;9.61;75.31;101351.06;4985590;28;20207;-73
2021/11/08 11:28:35;;;;;;;17.90;4.97;;;;;;;9.63;74.50;101346.53;4981801;28;20211;-73
2021/11/08 11:31:12;;;;;;;13.40;4.63;;;;;;;9.67;74.65;101345.44;4981538;28;20199;-73
2021/11/08 11:33:38;;;;;;;17.50;4.13;;;;;;;9.71;74.00;101344.34;4964441;28;20640;-72
2021/11/08 11:36:08;;;;;;;12.37;3.77;;;;;;;9.73;74.35;101339.81;4969129;28;20215;-73
2021/11/08 11:38:40;;;;;;;10.67;4.50;;;;;;;9.75;74.24;101347.75;4968611;28;20243;-73
2021/11/08 11:41:11;;;;;;;11.20;4.20;;;;;;;9.79;73.69;101338.69;4971330;28;20215;-71
2021/11/08 11:43:41;;;;;;;9.53;3.73;;;;;;;9.82;73.89;101329.69;4965298;28;20232;-73
2021/11/08 11:46:13;;;;;;;5.83;3.27;;;;;;;9.85;73.35;101341.03;4971177;28;20684;-73
2021/11/08 11:48:40;;;;;;;11.43;3.80;;;;;;;9.89;73.39;101337.28;4964259;28;20229;-72
2021/11/08 11:51:09;;;;;;;10.60;4.40;;;;;;;9.90;73.23;101338.13;4966925;28;20574;-73
2021/11/08 11:53:36;;;;;;;13.50;4.37;;;;;;;9.94;72.74;101345.03;4969246;28;20213;-74
2021/11/08 11:56:04;;;;;;;10.27;3.83;;;;;;;9.95;72.97;101346.75;4970736;28;20212;-72
2021/11/08 11:58:33;;;;;;;14.07;4.67;;;;;;;9.98;73.05;101349.28;4969897;28;20902;-73
2021/11/08 12:01:00;;;;;;;11.50;5.23;;;;;;;10.00;73.00;101342.09;4969318;28;20595;-73
2021/11/08 12:03:29;;;;;;;12.03;4.53;;;;;;;10.02;72.47;101343.72;4965818;28;20740;-74
2021/11/08 12:05:57;;;;;;;16.10;4.87;;;;;;;10.05;72.93;101346.22;4971904;28;20216;-73
2021/11/08 12:08:28;;;;;;;13.37;4.30;;;;;;;10.07;72.31;101341.69;4969449;28;20211;-71
2021/11/08 12:10:55;;;;;;;14.47;5.17;;;;;;;10.07;72.57;101344.34;4971075;28;20844;-73
2021/11/08 12:13:23;;;;;;;9.70;4.03;;;;;;;10.07;72.38;101338.16;4966647;28;20224;-71
2021/11/08 12:15:51;;;;;;;13.57;4.93;;;;;;;10.11;72.56;101347.72;4971344;28;20219;-73
2021/11/08 12:18:20;;;;;;;9.37;4.80;;;;;;;10.16;72.51;101342.16;4970543;28;20204;-74
2021/11/08 12:20:51;;;;;;;11.17;5.00;;;;;;;10.17;72.21;101342.09;4966269;28;20222;-73
2021/11/08 12:23:23;;;;;;;14.27;4.80;;;;;;;10.20;72.44;101341.13;4969511;28;20669;-74
2021/11/08 12:25:51;;;;;;;13.73;5.17;;;;;;;10.22;72.01;101340.06;4971666;28;20267;-74
2021/11/08 12:28:22;;;;;;;12.30;4.20;;;;;;;10.23;71.85;101338.25;4967478;28;20212;-74
2021/11/08 12:30:53;;;;;;;12.77;4.30;;;;;;;10.25;71.59;101334.59;4970845;28;20296;-73
2021/11/08 12:33:27;;;;;;;12.27;4.90;;;;;;;10.28;71.81;101326.44;4969853;28;20211;-72
2021/11/08 12:35:55;;;;;;;13.40;4.37;;;;;;;10.32;71.58;101320.03;4970836;28;20267;-72
2021/11/08 12:38:24;;;;;;;12.03;4.20;;;;;;;10.38;71.59;101318.88;4964907;28;20207;-72
2021/11/08 12:41:05;;;;;;;12.80;3.90;;;;;;;10.44;71.40;101315.88;4966181;28;20220;-73
2021/11/08 12:43:32;;;;;;;16.60;4.30;;;;;;;10.46;71.44;101311.31;4965374;28;20244;-73
2021/11/08 12:46:10;;;;;;;12.33;4.73;;;;;;;10.49;71.12;101308.50;4966934;28;20286;-72
2021/11/08 12:48:37;;;;;;;15.27;4.07;;;;;;;10.52;71.16;101307.50;4967621;28;20228;-72
2021/11/08 12:51:06;;;;;;;10.10;3.97;;;;;;;10.53;71.01;101303.88;4966669;28;20211;-75
2021/11/08 12:53:35;;;;;;;8.93;3.50;;;;;;;10.57;70.71;101302.78;4967028;28;20215;-75
2021/11/08 12:56:07;;;;;;;9.27;4.17;;;;;;;10.62;70.79;101306.06;4970131;28;20216;-73
2021/11/08 12:58:40;;;;;;;8.50;4.00;;;;;;;10.63;70.27;101303.31;4965528;28;20323;-74
2021/11/08 13:01:14;;;;;;;17.20;5.07;;;;;;;10.64;70.14;101299.69;4970959;28;20212;-73